Time;durP1;ratioP1;P1;durP2;ratioP2;P2;SDS_P1;SDS_P2;PMS_P1;PMS_P2;Temp;Humidity;BMP_temperature;BMP_pressure;BME280_temperature;BME280_humidity;BME280_pressure;Samples;Min_cycle;Max_cycle;Signal;HPM_P1;HPM_P2
2022/01/30 00:01:40;;;;;;;2.78;2.58;;;;;;;5.62;87.23;101494.56;5017096;28;20424;-84
2022/01/30 00:04:05;;;;;;;2.10;2.00;;;;;;;5.63;87.45;101485.50;5011152;28;20420;-85
2022/01/30 00:06:31;;;;;;;2.03;1.93;;;;;;;5.66;87.46;101483.25;5021405;28;20410;-83
2022/01/30 00:08:56;;;;;;;2.20;2.20;;;;;;;5.68;86.80;101480.38;5012709;28;20571;-84
2022/01/30 00:11:26;;;;;;;2.27;2.17;;;;;;;5.67;87.47;101486.75;5014438;28;20412;-84
2022/01/30 00:13:52;;;;;;;2.10;2.00;;;;;;;5.68;86.98;101483.91;5016267;28;20461;-86
2022/01/30 00:16:20;;;;;;;2.10;2.00;;;;;;;5.68;86.78;101480.38;5009502;28;20498;-85
2022/01/30 00:19:00;;;;;;;2.33;2.13;;;;;;;5.69;87.10;101485.59;5017753;28;20835;-84
2022/01/30 00:24:12;;;;;;;2.07;1.93;;;;;;;5.68;87.12;101480.38;5016936;28;20896;-85
2022/01/30 00:26:39;;;;;;;2.47;2.30;;;;;;;5.66;87.36;101475.16;5027798;28;20498;-85
2022/01/30 00:29:05;;;;;;;1.88;1.77;;;;;;;5.66;87.26;101475.16;5019454;28;20527;-84
2022/01/30 00:31:32;;;;;;;1.92;1.83;;;;;;;5.67;87.85;101460.72;5020396;28;20776;-85
2022/01/30 00:33:59;;;;;;;1.70;1.70;;;;;;;5.69;87.73;101456.00;5019114;28;20413;-85
2022/01/30 00:36:26;;;;;;;2.03;1.77;;;;;;;5.71;87.55;101467.38;5013359;28;20412;-84
2022/01/30 00:38:51;;;;;;;1.98;1.88;;;;;;;5.70;87.42;101467.56;5037438;28;20506;-84
2022/01/30 00:41:17;;;;;;;1.70;1.70;;;;;;;5.74;87.58;101466.16;5035151;28;20998;-85
2022/01/30 00:43:43;;;;;;;2.45;2.22;;;;;;;5.75;87.37;101470.53;5018961;28;20431;-84
2022/01/30 00:46:09;;;;;;;2.37;2.17;;;;;;;5.78;86.93;101466.63;5023645;28;20406;-84
2022/01/30 00:48:34;;;;;;;1.93;1.83;;;;;;;5.78;87.39;101461.25;5027397;28;20503;-84
2022/01/30 00:50:59;;;;;;;1.60;1.50;;;;;;;5.80;87.20;101468.09;5017730;28;20491;-84
2022/01/30 00:53:25;;;;;;;1.37;1.37;;;;;;;5.81;87.30;101477.00;5013709;28;20419;-85
2022/01/30 00:55:50;;;;;;;1.85;1.75;;;;;;;5.81;86.86;101490.47;5028863;28;20418;-84
2022/01/30 00:58:15;;;;;;;1.60;1.60;;;;;;;5.81;87.06;101477.00;5015341;28;20404;-85
2022/01/30 01:00:41;;;;;;;1.87;1.77;;;;;;;5.84;86.87;101482.00;5018549;28;20421;-84
2022/01/30 01:03:06;;;;;;;3.20;2.23;;;;;;;5.83;86.87;101480.34;5031826;28;20895;-86
2022/01/30 01:05:34;;;;;;;2.10;1.85;;;;;;;5.79;87.62;101479.91;5020095;28;20801;-84
2022/01/30 01:08:07;;;;;;;2.37;2.20;;;;;;;5.77;87.68;101476.56;5014504;28;20950;-85
2022/01/30 01:10:39;;;;;;;2.15;2.05;;;;;;;5.79;88.29;101471.84;5017140;28;20424;-83
2022/01/30 01:23:24;;;;;;;2.08;1.98;;;;;;;5.70;88.83;101471.09;5012960;28;20416;-85
2022/01/30 01:23:51;;;;;;;2.38;2.22;;;;;;;5.68;89.29;101467.78;5013208;28;20891;-86
2022/01/30 01:26:19;;;;;;;2.10;2.00;;;;;;;5.65;89.57;101467.31;5018004;28;20417;-85
2022/01/30 01:28:44;;;;;;;2.75;2.58;;;;;;;5.63;89.45;101455.91;5023446;28;20473;-84
2022/01/30 01:31:09;;;;;;;2.70;2.50;;;;;;;5.60;89.98;101458.97;5018869;28;20900;-84
2022/01/30 01:36:19;;;;;;;2.40;2.30;;;;;;;5.60;89.82;101459.78;5014264;28;20567;-85
2022/01/30 01:38:44;;;;;;;3.00;2.77;;;;;;;5.60;89.85;101467.88;5028373;28;20520;-85
2022/01/30 01:41:11;;;;;;;3.40;2.60;;;;;;;5.58;89.64;101469.91;5013822;28;20919;-85
2022/01/30 01:43:36;;;;;;;2.05;1.95;;;;;;;5.56;90.09;101471.13;5021304;28;20469;-84
2022/01/30 01:46:02;;;;;;;2.38;2.17;;;;;;;5.61;89.42;101471.38;5023987;28;20906;-85
2022/01/30 01:48:33;;;;;;;2.15;2.05;;;;;;;5.59;89.40;101481.50;5012325;28;20417;-85
2022/01/30 01:51:16;;;;;;;4.05;2.03;;;;;;;5.63;89.60;101483.63;5018420;28;20415;-85
2022/01/30 01:53:42;;;;;;;2.45;2.25;;;;;;;5.58;89.39;101486.06;5018179;28;20404;-85
2022/01/30 01:56:08;;;;;;;1.67;1.58;;;;;;;5.60;89.23;101475.94;5029580;28;20441;-84
2022/01/30 01:58:33;;;;;;;1.42;1.42;;;;;;;5.66;89.07;101480.56;5015670;28;20416;-83
2022/01/30 02:01:01;;;;;;;1.80;1.70;;;;;;;5.65;89.12;101488.81;5016019;28;20534;-86
2022/01/30 02:03:29;;;;;;;2.20;1.60;;;;;;;5.59;89.60;101484.19;5022178;28;20499;-84
2022/01/30 02:05:59;;;;;;;1.60;1.50;;;;;;;5.64;89.13;101482.59;5028326;28;20447;-85
2022/01/30 02:24:51;;;;;;;1.77;1.77;;;;;;;5.58;90.83;101461.00;5016631;28;20529;-85
2022/01/30 02:27:21;;;;;;;2.08;1.98;;;;;;;5.55;90.96;101456.00;5018596;28;20430;-85
2022/01/30 02:29:47;;;;;;;1.90;1.80;;;;;;;5.53;90.88;101460.75;5019885;28;20430;-85
2022/01/30 02:32:13;;;;;;;2.00;1.90;;;;;;;5.48;91.41;101455.94;5010943;28;20749;-84
2022/01/30 02:34:38;;;;;;;2.08;1.98;;;;;;;5.46;90.88;101455.28;5026383;28;20409;-84
2022/01/30 02:37:04;;;;;;;1.90;1.80;;;;;;;5.44;90.92;101456.47;5020906;28;20763;-85
2022/01/30 02:39:29;;;;;;;2.47;2.28;;;;;;;5.45;91.24;101460.84;5014156;28;20416;-85
2022/01/30 02:41:55;;;;;;;1.93;1.83;;;;;;;5.45;90.88;101461.69;5017635;28;20507;-85
2022/01/30 02:44:45;;;;;;;3.60;2.07;;;;;;;5.46;91.23;101468.75;5014140;28;20404;-85
2022/01/30 02:47:23;;;;;;;2.03;1.92;;;;;;;5.43;91.51;101457.53;5025141;28;20487;-85
2022/01/30 02:50:11;;;;;;;2.28;2.17;;;;;;;5.39;91.58;101457.06;5024497;28;20436;-85
2022/01/30 02:52:40;;;;;;;2.43;2.30;;;;;;;5.47;91.13;101462.31;5014658;28;20416;-84
2022/01/30 02:55:08;;;;;;;2.10;2.00;;;;;;;5.43;90.71;101465.59;5021438;28;20411;-85
2022/01/30 02:57:33;;;;;;;2.17;1.98;;;;;;;5.43;90.82;101463.75;5016861;28;20438;-84
2022/01/30 02:59:58;;;;;;;1.93;1.83;;;;;;;5.40;90.86;101461.41;5016294;28;20439;-85
2022/01/30 03:02:24;;;;;;;2.42;1.88;;;;;;;5.45;91.15;101460.84;5020407;28;20420;-84
2022/01/30 03:04:49;;;;;;;1.57;1.47;;;;;;;5.47;91.21;101456.09;5020085;28;20420;-84
2022/01/30 03:07:14;;;;;;;1.70;1.60;;;;;;;5.45;90.80;101459.00;5022434;28;20431;-88
2022/01/30 03:09:40;;;;;;;2.07;1.67;;;;;;;5.41;91.14;101456.84;5011964;28;20409;-88
2022/01/30 03:12:06;;;;;;;2.10;1.40;;;;;;;5.47;90.86;101467.69;5021388;28;20422;-84
2022/01/30 03:14:32;;;;;;;1.98;1.55;;;;;;;5.48;90.60;101464.00;5013616;28;20409;-85
2022/01/30 03:16:58;;;;;;;1.50;1.40;;;;;;;5.50;90.46;101469.19;5011852;28;20419;-83
2022/01/30 03:19:23;;;;;;;1.40;1.30;;;;;;;5.49;90.30;101476.44;5028062;28;20405;-85
2022/01/30 03:21:49;;;;;;;1.73;1.63;;;;;;;5.49;90.63;101480.97;5017125;28;20411;-85
2022/01/30 03:24:14;;;;;;;2.05;1.35;;;;;;;5.49;90.63;101478.28;5029259;28;20414;-84
2022/01/30 03:26:40;;;;;;;2.23;1.60;;;;;;;5.46;90.76;101481.34;5020247;28;20448;-86
2022/01/30 03:29:07;;;;;;;1.50;1.50;;;;;;;5.46;90.62;101479.50;5019961;28;20449;-84
2022/01/30 03:31:38;;;;;;;1.75;1.65;;;;;;;5.52;90.50;101494.88;5011019;28;20408;-84
2022/01/30 03:34:05;;;;;;;1.58;1.38;;;;;;;5.50;90.66;101496.88;5026567;28;20415;-85
2022/01/30 03:36:31;;;;;;;2.58;1.90;;;;;;;5.51;90.62;101498.56;5020681;28;20408;-85
2022/01/30 03:38:56;;;;;;;1.40;1.40;;;;;;;5.56;91.08;101508.78;5016754;28;20410;-84
2022/01/30 03:41:21;;;;;;;2.70;1.67;;;;;;;5.56;90.44;101506.09;5010186;28;20907;-85
2022/01/30 03:43:47;;;;;;;1.57;1.43;;;;;;;5.49;90.70;101511.38;5025747;28;20411;-84
2022/01/30 03:46:12;;;;;;;1.50;1.50;;;;;;;5.52;90.85;101513.69;5019415;28;20416;-84
2022/01/30 03:48:37;;;;;;;1.70;1.70;;;;;;;5.49;90.82;101510.53;5012115;28;20424;-84
2022/01/30 03:51:03;;;;;;;1.90;1.70;;;;;;;5.45;91.12;101514.59;5022283;28;20436;-84
2022/01/30 03:53:31;;;;;;;1.90;1.80;;;;;;;5.47;91.00;101524.16;5021858;28;20832;-84
2022/01/30 03:55:56;;;;;;;1.90;1.80;;;;;;;5.47;91.49;101520.63;5018985;28;20919;-85
2022/01/30 03:58:21;;;;;;;1.43;1.43;;;;;;;5.49;91.16;101522.13;5013693;28;20430;-84
2022/01/30 04:00:47;;;;;;;1.80;1.70;;;;;;;5.45;91.12;101520.00;5012018;28;20555;-84
2022/01/30 04:03:12;;;;;;;2.00;1.80;;;;;;;5.45;91.37;101526.19;5013681;28;20468;-84
2022/01/30 04:05:37;;;;;;;1.73;1.63;;;;;;;5.41;91.48;101537.50;5011115;28;20412;-84
2022/01/30 04:08:03;;;;;;;1.83;1.73;;;;;;;5.41;91.16;101532.13;5027121;28;20779;-84
2022/01/30 04:10:30;;;;;;;2.30;1.80;;;;;;;5.37;91.43;101536.22;5012345;28;20815;-84
2022/01/30 04:12:56;;;;;;;2.10;1.90;;;;;;;5.33;91.55;101535.75;5007179;28;20432;-83
2022/01/30 04:15:21;;;;;;;2.10;1.90;;;;;;;5.33;91.45;101541.13;5009168;28;20909;-84
2022/01/30 04:17:48;;;;;;;2.60;2.40;;;;;;;5.36;91.54;101547.97;5017632;28;20747;-84
2022/01/30 04:20:14;;;;;;;5.68;4.38;;;;;;;5.32;91.83;101541.31;5011245;28;20403;-84
2022/01/30 04:22:39;;;;;;;4.17;3.60;;;;;;;5.28;91.98;101546.22;5021878;28;20415;-84
2022/01/30 04:25:05;;;;;;;3.87;2.63;;;;;;;5.26;91.72;101550.09;5038516;28;20439;-84
2022/01/30 04:27:30;;;;;;;3.00;2.80;;;;;;;5.22;92.06;101555.84;5020681;28;20436;-84
2022/01/30 04:29:56;;;;;;;2.25;2.08;;;;;;;5.20;92.07;101555.19;5016873;28;20413;-85
2022/01/30 04:32:23;;;;;;;2.72;2.42;;;;;;;5.23;92.03;101549.47;5021859;28;20467;-84
2022/01/30 04:34:54;;;;;;;3.28;2.35;;;;;;;5.22;92.04;101555.84;5014455;28;20970;-84
2022/01/30 04:37:29;;;;;;;2.65;2.55;;;;;;;5.22;92.38;101553.16;5017425;28;20906;-84
2022/01/30 04:53:22;;;;;;;2.40;2.30;;;;;;;5.05;92.61;101550.81;5014002;28;20504;-84
2022/01/30 04:56:54;;;;;;;3.10;2.90;;;;;;;5.05;92.52;101554.34;5013613;28;20408;-83
2022/01/30 04:59:14;;;;;;;3.05;2.85;;;;;;;5.04;92.47;101554.50;5013606;28;20412;-84
2022/01/30 05:01:50;;;;;;;3.20;2.97;;;;;;;5.02;92.28;101551.16;5023239;28;20434;-84
2022/01/30 05:04:30;;;;;;;3.22;2.92;;;;;;;4.96;92.58;101570.72;5010635;28;20416;-84
2022/01/30 05:09:24;;;;;;;4.20;3.80;;;;;;;4.91;92.27;101563.19;5023257;28;20427;-84
2022/01/30 05:11:49;;;;;;;4.57;4.20;;;;;;;4.86;92.66;101560.22;5028137;28;20409;-84
2022/01/30 05:14:16;;;;;;;4.43;4.13;;;;;;;4.84;92.38;101572.16;5014521;28;20416;-84
2022/01/30 05:16:41;;;;;;;4.75;4.35;;;;;;;4.84;92.58;101566.78;5019700;28;20407;-84
2022/01/30 05:19:07;;;;;;;5.07;4.30;;;;;;;4.80;92.72;101565.47;5014428;28;20907;-83
2022/01/30 05:21:32;;;;;;;4.60;3.83;;;;;;;4.76;93.03;101562.31;5005658;28;21063;-84
2022/01/30 05:23:58;;;;;;;4.40;4.10;;;;;;;4.74;93.00;101563.50;5013213;28;20420;-84
2022/01/30 05:26:25;;;;;;;4.77;4.30;;;;;;;4.71;93.38;101559.31;5025906;28;20501;-85
2022/01/30 05:28:51;;;;;;;5.03;4.63;;;;;;;4.67;93.22;101563.41;5017520;28;20426;-84
2022/01/30 05:31:17;;;;;;;4.95;4.57;;;;;;;4.65;93.22;101570.78;5029717;28;20468;-84
2022/01/30 05:33:42;;;;;;;4.77;4.40;;;;;;;4.66;93.45;101575.97;5011894;28;20518;-84
2022/01/30 05:36:08;;;;;;;4.90;4.50;;;;;;;4.62;93.42;101579.19;5027248;28;20774;-85
2022/01/30 05:38:34;;;;;;;4.80;4.50;;;;;;;4.60;93.93;101590.13;5013240;28;20768;-84
2022/01/30 05:41:00;;;;;;;5.13;4.72;;;;;;;4.59;93.71;101587.59;5028551;28;20407;-84
2022/01/30 05:43:28;;;;;;;5.23;4.83;;;;;;;4.58;93.95;101594.81;5022646;28;20432;-85
2022/01/30 05:46:06;;;;;;;5.25;4.70;;;;;;;4.58;94.06;101604.72;5018663;28;20403;-84
2022/01/30 05:48:32;;;;;;;5.40;4.88;;;;;;;4.58;94.10;101597.50;5012870;28;20421;-84
2022/01/30 05:50:58;;;;;;;6.28;5.10;;;;;;;4.56;93.74;101594.19;5012628;28;20419;-84
2022/01/30 05:53:23;;;;;;;6.20;5.13;;;;;;;4.57;93.94;101595.00;5016705;28;20408;-85
2022/01/30 05:55:50;;;;;;;9.13;8.20;;;;;;;4.58;93.62;101604.72;5019798;28;20422;-84
2022/01/30 05:58:15;;;;;;;9.48;7.50;;;;;;;4.55;93.63;101605.06;5017803;28;20891;-86
2022/01/30 06:00:41;;;;;;;7.63;6.15;;;;;;;4.51;93.95;101596.53;5016393;28;20427;-85
2022/01/30 06:03:06;;;;;;;6.10;5.67;;;;;;;4.53;94.05;101607.97;5016581;28;20401;-84
2022/01/30 06:05:32;;;;;;;16.00;11.13;;;;;;;4.50;93.56;101607.47;5015033;28;20403;-85
2022/01/30 06:07:58;;;;;;;22.80;11.65;;;;;;;4.48;93.76;101612.19;5022356;28;20770;-85
2022/01/30 06:10:26;;;;;;;11.98;8.10;;;;;;;4.45;93.83;101612.53;5016925;28;20411;-84
2022/01/30 06:12:51;;;;;;;14.25;9.48;;;;;;;4.45;93.87;101616.03;5025757;28;20888;-84
2022/01/30 06:15:17;;;;;;;8.90;7.10;;;;;;;4.47;93.54;101618.56;5011788;28;20408;-85
2022/01/30 06:17:43;;;;;;;9.60;6.57;;;;;;;4.43;93.55;101627.97;5018761;28;20409;-84
2022/01/30 06:20:09;;;;;;;13.02;8.13;;;;;;;4.40;93.63;101637.22;5035746;28;20403;-84
2022/01/30 06:22:35;;;;;;;14.65;9.32;;;;;;;4.39;93.95;101635.53;5017491;28;20428;-84
2022/01/30 06:25:00;;;;;;;19.30;9.93;;;;;;;4.38;93.51;101636.53;5028178;28;20457;-84
2022/01/30 06:27:26;;;;;;;14.33;9.17;;;;;;;4.35;93.95;101631.53;5018598;28;20439;-84
2022/01/30 06:29:51;;;;;;;12.50;9.00;;;;;;;4.33;94.33;101646.16;5020434;28;20487;-84
2022/01/30 06:32:16;;;;;;;11.13;8.50;;;;;;;4.35;93.84;101649.47;5018298;28;20440;-84
2022/01/30 06:34:42;;;;;;;12.50;8.63;;;;;;;4.34;93.96;101658.56;5010438;28;20416;-84
2022/01/30 06:37:08;;;;;;;11.48;8.50;;;;;;;4.34;93.50;101662.09;5012495;28;20416;-84
2022/01/30 06:39:33;;;;;;;12.17;8.33;;;;;;;4.32;93.73;101668.63;5016748;28;20409;-84
2022/01/30 06:41:59;;;;;;;9.90;7.43;;;;;;;4.32;93.53;101671.28;5012211;28;20421;-85
2022/01/30 06:44:24;;;;;;;8.25;7.40;;;;;;;4.32;93.49;101672.13;5008871;28;20419;-85
2022/01/30 06:46:49;;;;;;;8.60;7.13;;;;;;;4.32;93.50;101671.28;5011428;28;20419;-84
2022/01/30 06:49:15;;;;;;;12.03;7.30;;;;;;;4.31;93.70;101675.84;5009719;28;20461;-85
2022/01/30 06:51:40;;;;;;;9.03;7.93;;;;;;;4.32;93.54;101677.50;5025375;28;20493;-84
2022/01/30 06:54:05;;;;;;;12.53;8.70;;;;;;;4.33;93.36;101679.19;5008541;28;20817;-84
2022/01/30 06:56:31;;;;;;;9.77;7.87;;;;;;;4.37;93.62;101677.00;5028665;28;20511;-85
2022/01/30 06:58:56;;;;;;;9.30;6.83;;;;;;;4.38;93.54;101676.00;5016359;28;20412;-84
2022/01/30 07:01:23;;;;;;;9.57;7.40;;;;;;;4.34;93.58;101693.44;5012782;28;20466;-85
2022/01/30 07:03:49;;;;;;;14.00;8.20;;;;;;;4.28;93.48;101692.28;5026509;28;20411;-85
2022/01/30 07:06:14;;;;;;;12.17;7.17;;;;;;;4.25;93.39;101692.63;5018996;28;20806;-85
2022/01/30 07:08:39;;;;;;;9.37;7.47;;;;;;;4.25;93.40;101697.19;5029063;28;20429;-84
2022/01/30 07:11:04;;;;;;;17.60;10.33;;;;;;;4.18;93.43;101695.16;5015350;28;20443;-85
2022/01/30 07:13:30;;;;;;;14.77;8.27;;;;;;;4.16;93.65;101699.88;5012844;28;20555;-84
2022/01/30 07:15:55;;;;;;;20.30;10.90;;;;;;;4.13;93.15;101702.06;5012622;28;20411;-85
2022/01/30 07:18:20;;;;;;;13.83;9.10;;;;;;;4.12;93.74;101703.91;5013721;28;20744;-84
2022/01/30 07:20:46;;;;;;;18.73;10.05;;;;;;;4.08;93.64;101699.88;5015971;28;20448;-85
2022/01/30 07:23:11;;;;;;;23.63;11.80;;;;;;;4.04;93.57;101711.16;5020263;28;20896;-84
2022/01/30 07:25:36;;;;;;;20.97;11.33;;;;;;;4.05;93.56;101715.53;5017129;28;20408;-84
2022/01/30 07:28:02;;;;;;;13.35;9.65;;;;;;;4.07;93.21;101714.34;5011596;28;20499;-84
2022/01/30 07:30:27;;;;;;;22.57;14.50;;;;;;;4.08;93.09;101725.91;5015867;28;20424;-84
2022/01/30 07:32:52;;;;;;;18.37;11.07;;;;;;;4.05;93.03;101727.06;5025665;28;20494;-84
2022/01/30 07:35:18;;;;;;;13.43;8.70;;;;;;;4.09;93.08;101733.78;5015746;28;20412;-84
2022/01/30 07:37:43;;;;;;;13.40;8.70;;;;;;;4.08;92.96;101724.03;5019295;28;20400;-84
2022/01/30 07:40:09;;;;;;;15.07;8.37;;;;;;;4.02;93.14;101719.38;5023373;28;20767;-85
2022/01/30 07:42:35;;;;;;;17.20;9.20;;;;;;;4.07;93.38;101726.91;5019979;28;20486;-85
2022/01/30 07:45:00;;;;;;;12.07;6.65;;;;;;;4.06;93.25;101730.59;5014158;28;20404;-86
2022/01/30 07:47:25;;;;;;;12.00;7.00;;;;;;;4.05;93.76;101732.44;5025179;28;20401;-84
2022/01/30 07:49:54;;;;;;;10.80;7.30;;;;;;;4.10;93.96;101734.59;5015985;28;20419;-82
2022/01/30 07:52:20;;;;;;;9.43;7.85;;;;;;;4.12;94.12;101737.94;5024342;28;20466;-84
2022/01/30 07:54:46;;;;;;;13.55;9.18;;;;;;;4.18;93.47;101740.78;5033175;28;20413;-85
2022/01/30 07:57:11;;;;;;;9.57;7.25;;;;;;;4.19;93.85;101749.66;5035809;28;20399;-84
2022/01/30 07:59:37;;;;;;;8.97;6.20;;;;;;;4.17;94.00;101752.53;5029080;28;20399;-84
2022/01/30 08:02:03;;;;;;;10.10;6.60;;;;;;;4.21;93.89;101761.09;5012236;28;20495;-84
2022/01/30 08:04:28;;;;;;;7.17;6.07;;;;;;;4.21;93.98;101762.94;5012396;28;20413;-84
2022/01/30 08:06:54;;;;;;;12.07;7.50;;;;;;;4.30;93.82;101764.56;5017587;28;20406;-84
2022/01/30 08:09:19;;;;;;;11.50;7.43;;;;;;;4.34;93.76;101758.69;5015963;28;20993;-85
2022/01/30 08:11:44;;;;;;;12.33;7.00;;;;;;;4.37;93.85;101761.03;5018455;28;20420;-84
2022/01/30 08:14:10;;;;;;;10.23;6.80;;;;;;;4.40;94.10;101760.69;5019364;28;20418;-83
2022/01/30 08:16:35;;;;;;;14.83;6.87;;;;;;;4.43;93.89;101768.38;5015808;28;20534;-86
2022/01/30 08:19:00;;;;;;;10.40;6.10;;;;;;;4.52;93.88;101777.25;5034222;28;20395;-85
2022/01/30 08:21:26;;;;;;;7.93;6.53;;;;;;;4.55;93.88;101780.41;5019552;28;20425;-89
2022/01/30 08:23:51;;;;;;;14.13;6.17;;;;;;;4.63;94.02;101775.03;5000590;28;20408;-84
2022/01/30 08:26:16;;;;;;;9.37;6.20;;;;;;;4.78;94.05;101779.66;5019116;28;20401;-83
2022/01/30 08:28:42;;;;;;;11.63;6.27;;;;;;;4.85;94.32;101778.78;5018432;28;20515;-85
2022/01/30 08:31:07;;;;;;;13.07;5.90;;;;;;;5.12;94.32;101785.50;5011908;28;20396;-84
2022/01/30 08:33:32;;;;;;;13.80;6.30;;;;;;;5.27;93.63;101783.72;5013705;28;20407;-84
2022/01/30 08:35:58;;;;;;;14.05;6.80;;;;;;;5.31;93.15;101781.53;5019251;28;20415;-85
2022/01/30 08:38:23;;;;;;;15.60;7.43;;;;;;;5.16;92.73;101787.69;5014113;28;20890;-85
2022/01/30 08:40:49;;;;;;;12.93;6.23;;;;;;;5.13;92.70;101790.72;5024654;28;20477;-84
2022/01/30 08:43:14;;;;;;;16.67;6.57;;;;;;;4.99;92.61;101788.78;5025584;28;20794;-84
2022/01/30 08:45:41;;;;;;;18.08;6.55;;;;;;;4.95;92.54;101794.66;5027392;28;20398;-84
2022/01/30 08:48:07;;;;;;;17.48;6.88;;;;;;;4.92;92.64;101800.41;5029006;28;20422;-85
2022/01/30 08:50:32;;;;;;;19.30;7.47;;;;;;;4.92;92.71;101795.03;5035288;28;20919;-85
2022/01/30 08:52:57;;;;;;;22.17;10.70;;;;;;;5.00;92.39;101795.84;5029698;28;20414;-85
2022/01/30 08:55:23;;;;;;;18.03;9.23;;;;;;;5.10;92.68;101792.94;5022506;28;20760;-85
2022/01/30 08:57:50;;;;;;;16.73;7.37;;;;;;;5.32;91.85;101792.13;5018777;28;20700;-84
2022/01/30 09:00:17;;;;;;;15.02;6.18;;;;;;;5.27;91.20;101797.16;5022091;28;20872;-84
2022/01/30 09:02:45;;;;;;;16.40;7.22;;;;;;;5.22;90.95;101796.88;5018816;28;20410;-84
2022/01/30 09:05:11;;;;;;;14.20;6.55;;;;;;;5.35;91.15;101794.44;5023247;28;20901;-83
2022/01/30 09:07:38;;;;;;;13.55;6.20;;;;;;;5.53;91.08;101794.16;5016340;28;20440;-84
2022/01/30 09:10:05;;;;;;;17.00;6.68;;;;;;;5.80;90.78;101796.28;5029686;28;20871;-82
2022/01/30 09:12:31;;;;;;;13.35;5.40;;;;;;;5.86;90.13;101797.44;5025847;28;20432;-86
2022/01/30 09:14:56;;;;;;;13.32;5.95;;;;;;;6.02;89.50;101794.63;5020980;28;20747;-85
2022/01/30 09:17:24;;;;;;;17.83;6.37;;;;;;;6.16;89.02;101794.63;5015171;28;20432;-86
2022/01/30 09:19:49;;;;;;;14.48;6.05;;;;;;;6.33;87.61;101794.44;5022447;28;21265;-84
2022/01/30 09:22:17;;;;;;;16.60;7.63;;;;;;;6.59;87.42;101797.50;5014311;28;20551;-85
2022/01/30 09:24:43;;;;;;;16.08;7.35;;;;;;;6.97;86.33;101795.53;5017072;28;20425;-84
2022/01/30 09:27:09;;;;;;;17.17;6.18;;;;;;;7.60;83.88;101795.63;5022466;28;20408;-86
2022/01/30 09:29:36;;;;;;;17.13;6.47;;;;;;;8.46;80.24;101796.34;5022264;28;20457;-84
2022/01/30 09:32:03;;;;;;;20.65;6.22;;;;;;;8.85;77.76;101791.13;5016353;28;20407;-85
2022/01/30 09:34:29;;;;;;;20.30;5.85;;;;;;;8.96;74.77;101778.91;5017427;28;20475;-84
2022/01/30 09:36:54;;;;;;;17.70;5.93;;;;;;;8.81;74.43;101787.16;5020281;28;20463;-85
2022/01/30 09:39:20;;;;;;;19.80;6.13;;;;;;;9.38;73.49;101784.03;5012029;28;20417;-85
2022/01/30 09:41:49;;;;;;;17.63;5.73;;;;;;;10.76;66.92;101771.25;5019886;28;20427;-83
2022/01/30 09:44:15;;;;;;;21.97;6.33;;;;;;;10.93;65.16;101774.31;5011266;28;20409;-83
2022/01/30 09:46:42;;;;;;;19.30;5.47;;;;;;;10.53;65.17;101768.22;5022926;28;20430;-84
2022/01/30 09:49:08;;;;;;;23.55;5.60;;;;;;;9.72;66.30;101777.63;5014557;28;20421;-83
2022/01/30 09:51:34;;;;;;;17.88;5.13;;;;;;;8.95;69.25;101778.06;5026652;28;20494;-83
2022/01/30 09:54:01;;;;;;;16.38;5.53;;;;;;;8.76;70.82;101771.53;5019359;28;20510;-83
2022/01/30 09:56:26;;;;;;;20.27;5.50;;;;;;;8.40;72.29;101776.31;5028287;28;20391;-83
2022/01/30 09:58:52;;;;;;;18.88;5.15;;;;;;;8.53;72.68;101775.59;5015878;28;20409;-83
2022/01/30 10:01:17;;;;;;;26.30;6.57;;;;;;;8.51;72.93;101772.25;5022145;28;20423;-83
2022/01/30 10:03:43;;;;;;;19.63;5.90;;;;;;;8.41;72.31;101778.00;5019695;28;20414;-86
2022/01/30 10:06:13;;;;;;;23.73;5.40;;;;;;;8.71;70.34;101775.88;5022694;28;20414;-85
2022/01/30 10:08:42;;;;;;;16.92;5.55;;;;;;;9.35;68.99;101765.50;5012834;28;20435;-85
2022/01/30 10:11:27;;;;;;;19.20;4.75;;;;;;;9.95;65.52;101772.63;5022516;28;20403;-85
2022/01/30 10:14:10;;;;;;;18.40;4.90;;;;;;;9.29;65.00;101774.41;5016475;28;20907;-82
2022/01/30 10:16:41;;;;;;;17.42;4.85;;;;;;;8.94;65.88;101772.84;5015511;28;20435;-84
2022/01/30 10:19:09;;;;;;;19.77;4.40;;;;;;;9.44;64.76;101758.84;5012293;28;20409;-84
2022/01/30 10:21:34;;;;;;;17.05;4.55;;;;;;;10.07;64.34;101764.72;5028328;28;20407;-83
2022/01/30 10:23:59;;;;;;;16.73;3.90;;;;;;;10.17;61.84;101765.16;5010325;28;20412;-84
2022/01/30 10:26:31;;;;;;;20.33;4.50;;;;;;;10.08;59.86;101750.09;5019887;28;20422;-84
2022/01/30 10:28:57;;;;;;;17.60;4.53;;;;;;;9.44;60.83;101745.34;5014715;28;20791;-83
2022/01/30 10:31:25;;;;;;;14.35;3.88;;;;;;;9.27;62.45;101749.47;5013374;28;20807;-82
2022/01/30 10:33:51;;;;;;;12.33;3.80;;;;;;;9.31;61.23;101743.44;5009565;28;20414;-81
2022/01/30 10:36:25;;;;;;;16.48;3.67;;;;;;;9.95;58.51;101750.13;5005791;28;20435;-82
2022/01/30 10:39:17;;;;;;;17.08;3.70;;;;;;;10.49;56.63;101741.72;5004150;28;20411;-81
2022/01/30 10:41:48;;;;;;;13.60;3.38;;;;;;;11.35;54.64;101730.25;5006599;28;20476;-83
2022/01/30 10:44:13;;;;;;;17.27;3.95;;;;;;;11.06;53.87;101735.44;5005763;28;20422;-82
2022/01/30 10:46:40;;;;;;;14.77;3.67;;;;;;;9.69;55.35;101734.72;5022626;28;20407;-83
2022/01/30 10:49:17;;;;;;;12.70;4.20;;;;;;;8.58;57.92;101732.59;5003262;28;20431;-81
2022/01/30 10:51:56;;;;;;;15.77;3.10;;;;;;;7.96;59.34;101735.31;5010587;28;20965;-81
2022/01/30 10:54:29;;;;;;;13.43;3.42;;;;;;;7.74;61.12;101742.59;5003764;28;20415;-80
2022/01/30 10:57:05;;;;;;;14.77;4.00;;;;;;;7.71;60.45;101745.69;5005115;28;20423;-82
2022/01/30 10:59:31;;;;;;;13.32;4.28;;;;;;;7.68;61.38;101740.69;5003955;28;20415;-80
2022/01/30 11:02:10;;;;;;;13.32;3.53;;;;;;;7.79;61.21;101735.59;5006429;28;20431;-81
2022/01/30 11:04:35;;;;;;;16.67;4.05;;;;;;;7.94;60.21;101746.28;5005483;28;20790;-83
2022/01/30 11:07:03;;;;;;;15.33;3.97;;;;;;;7.77;60.18;101753.81;5003493;28;20423;-83
2022/01/30 11:09:49;;;;;;;17.77;4.70;;;;;;;7.72;60.43;101740.09;5011334;28;20435;-84
2022/01/30 11:12:15;;;;;;;18.73;5.03;;;;;;;7.49;59.70;101747.56;5010534;28;21755;-83
2022/01/30 11:17:16;;;;;;;16.65;3.58;;;;;;;7.53;60.81;101754.25;5008786;28;20583;-82
2022/01/30 11:19:43;;;;;;;18.67;3.97;;;;;;;7.79;60.56;101745.56;5005762;28;20442;-81
2022/01/30 11:22:11;;;;;;;15.85;3.38;;;;;;;7.96;60.53;101743.41;5009620;28;20541;-81
2022/01/30 11:24:49;;;;;;;11.00;3.88;;;;;;;8.09;60.29;101743.50;5011882;28;20415;-82
2022/01/30 11:27:17;;;;;;;14.83;4.13;;;;;;;8.16;59.21;101747.91;5004811;28;20564;-83
2022/01/30 11:29:43;;;;;;;15.25;3.80;;;;;;;8.06;58.38;101741.19;5010860;28;20443;-83
2022/01/30 11:32:08;;;;;;;17.17;3.90;;;;;;;8.16;59.25;101753.31;5019875;28;20825;-81
2022/01/30 11:34:36;;;;;;;15.40;3.57;;;;;;;8.23;58.03;101754.16;5013803;28;20907;-82
2022/01/30 11:37:02;;;;;;;17.73;4.10;;;;;;;8.36;58.45;101753.47;5016392;28;20476;-83
2022/01/30 11:39:27;;;;;;;17.00;3.92;;;;;;;8.56;57.64;101745.47;5025437;28;20470;-83
2022/01/30 11:42:20;;;;;;;12.43;3.63;;;;;;;8.69;57.29;101753.63;5012791;28;20866;-82
2022/01/30 11:44:47;;;;;;;12.50;3.30;;;;;;;8.81;57.81;101747.44;5007046;28;20424;-81
2022/01/30 11:47:12;;;;;;;11.85;2.97;;;;;;;8.82;57.42;101746.41;5025289;28;20445;-83
2022/01/30 11:49:49;;;;;;;16.07;3.30;;;;;;;8.78;56.88;101747.84;5024151;28;20953;-84
2022/01/30 11:52:16;;;;;;;10.57;3.17;;;;;;;8.69;57.52;101749.03;5006777;28;20417;-82
2022/01/30 11:54:46;;;;;;;16.85;3.55;;;;;;;8.53;56.99;101745.88;5004808;28;20477;-83
2022/01/30 11:57:20;;;;;;;13.93;4.20;;;;;;;8.41;57.23;101734.78;5006321;28;20965;-82
2022/01/30 11:59:49;;;;;;;10.32;3.45;;;;;;;8.41;57.70;101742.88;5006958;28;20486;-84
2022/01/30 12:02:27;;;;;;;16.13;4.53;;;;;;;8.44;57.07;101731.69;5007885;28;20429;-82
2022/01/30 12:04:57;;;;;;;13.65;4.03;;;;;;;8.33;57.22;101733.06;5007022;28;20445;-88
2022/01/30 12:07:51;;;;;;;11.93;3.92;;;;;;;8.15;57.31;101727.34;5007572;28;20480;-83
2022/01/30 12:10:19;;;;;;;13.25;3.58;;;;;;;8.50;57.27;101724.63;5005827;28;20451;-82
2022/01/30 12:12:55;;;;;;;9.57;3.20;;;;;;;8.62;57.14;101725.75;5006408;28;20472;-82
2022/01/30 12:15:45;;;;;;;15.27;5.18;;;;;;;8.54;57.66;101731.31;5004542;28;20427;-84
2022/01/30 12:18:37;;;;;;;20.00;4.72;;;;;;;8.64;57.32;101732.63;5004905;28;20421;-81
2022/01/30 12:21:11;;;;;;;16.60;4.93;;;;;;;8.66;57.79;101735.13;5005525;28;20789;-81